createdAt,value
2023-07-18T00:00:01.492Z,99.90
2023-07-18T00:02:29.411Z,99.90
2023-07-18T00:04:58.693Z,99.90
2023-07-18T00:07:28.081Z,99.90
2023-07-18T00:09:59.033Z,99.90
2023-07-18T00:12:27.176Z,99.90
2023-07-18T00:14:55.010Z,99.90
2023-07-18T00:17:22.860Z,99.90
2023-07-18T00:19:51.188Z,99.90
2023-07-18T00:22:21.152Z,99.90
2023-07-18T00:24:49.381Z,99.90
2023-07-18T00:27:17.673Z,99.90
2023-07-18T00:29:45.510Z,99.90
2023-07-18T00:32:13.413Z,99.90
2023-07-18T00:34:42.369Z,99.90
2023-07-18T00:37:10.239Z,99.90
2023-07-18T00:39:39.433Z,99.90
2023-07-18T00:42:08.113Z,99.90
2023-07-18T00:44:35.932Z,99.90
2023-07-18T00:47:03.783Z,99.90
2023-07-18T00:49:31.609Z,99.90
2023-07-18T00:51:59.469Z,99.90
2023-07-18T00:54:27.296Z,99.90
2023-07-18T00:56:56.597Z,99.90
2023-07-18T00:59:24.473Z,99.90
2023-07-18T01:01:52.544Z,99.90
2023-07-18T01:04:20.973Z,99.90
2023-07-18T01:06:49.084Z,99.90
2023-07-18T01:09:16.930Z,99.90
2023-07-18T01:11:44.940Z,99.90
2023-07-18T01:14:14.095Z,99.90
2023-07-18T01:16:42.600Z,99.90
2023-07-18T01:19:10.440Z,99.90
2023-07-18T01:21:39.669Z,99.90
2023-07-18T01:24:07.784Z,99.90
2023-07-18T01:26:35.744Z,99.90
2023-07-18T01:29:04.129Z,99.90
2023-07-18T01:31:33.206Z,99.90
2023-07-18T01:34:01.063Z,99.90
2023-07-18T01:36:29.605Z,99.90
2023-07-18T01:38:58.797Z,99.90
2023-07-18T01:41:26.602Z,99.90
2023-07-18T01:43:54.413Z,99.90
2023-07-18T01:46:22.276Z,99.90
2023-07-18T01:48:50.116Z,99.90
2023-07-18T01:51:18.122Z,99.90
2023-07-18T01:53:47.401Z,99.90
2023-07-18T01:56:18.314Z,99.90
2023-07-18T01:58:46.212Z,99.90
2023-07-18T02:01:14.699Z,99.90
2023-07-18T02:03:42.591Z,99.90
2023-07-18T02:06:11.548Z,99.90
2023-07-18T02:08:39.381Z,99.90
2023-07-18T02:11:07.192Z,99.90
2023-07-18T02:13:36.404Z,99.90
2023-07-18T02:16:04.299Z,99.90
2023-07-18T02:18:32.135Z,99.90
2023-07-18T02:21:00.177Z,99.90
2023-07-18T02:23:27.014Z,99.90
2023-07-18T02:25:55.085Z,99.90
2023-07-18T02:28:23.314Z,99.90
2023-07-18T02:30:54.760Z,99.90
2023-07-18T02:33:22.598Z,99.90
2023-07-18T02:35:51.199Z,99.90
2023-07-18T02:38:19.007Z,99.90
2023-07-18T02:40:46.908Z,99.90
2023-07-18T02:43:14.737Z,99.90
2023-07-18T02:45:42.573Z,99.90
2023-07-18T02:48:11.729Z,99.90
2023-07-18T02:50:39.530Z,99.90
2023-07-18T02:53:07.361Z,99.90
2023-07-18T02:55:35.157Z,99.90
2023-07-18T02:58:03.000Z,99.90
2023-07-18T03:00:32.509Z,99.90
2023-07-18T03:03:00.487Z,99.90
2023-07-18T03:05:30.335Z,99.90
2023-07-18T03:07:58.311Z,99.90
2023-07-18T03:10:26.397Z,99.90
2023-07-18T03:12:54.228Z,99.90
2023-07-18T03:15:22.801Z,99.90
2023-07-18T03:17:50.668Z,99.90
2023-07-18T03:20:20.290Z,99.90
2023-07-18T03:22:50.353Z,99.90
2023-07-18T03:25:18.604Z,99.90
2023-07-18T03:27:46.546Z,99.90
2023-07-18T03:30:14.519Z,99.90
2023-07-18T03:32:42.818Z,99.90
2023-07-18T03:35:12.095Z,99.90
2023-07-18T03:37:40.067Z,99.90
2023-07-18T03:40:11.388Z,99.90
2023-07-18T03:42:39.372Z,99.90
2023-07-18T03:45:08.817Z,99.90
2023-07-18T03:47:37.216Z,99.90
2023-07-18T03:50:05.513Z,99.90
2023-07-18T03:52:33.372Z,99.90
2023-07-18T03:55:01.207Z,99.90
2023-07-18T03:57:30.893Z,99.90
2023-07-18T03:59:59.101Z,99.90
2023-07-18T04:02:27.779Z,99.90
2023-07-18T04:04:55.785Z,99.90
2023-07-18T04:07:23.641Z,99.90
2023-07-18T04:09:51.512Z,99.90
2023-07-18T04:12:19.404Z,99.90
2023-07-18T04:14:48.665Z,99.90
2023-07-18T04:17:17.511Z,99.90
2023-07-18T04:19:45.401Z,99.90
2023-07-18T04:22:13.309Z,99.90
2023-07-18T04:24:41.175Z,99.90
2023-07-18T04:27:09.040Z,99.90
2023-07-18T04:29:36.939Z,99.90
2023-07-18T04:32:07.174Z,99.90
2023-07-18T04:34:35.070Z,99.90
2023-07-18T04:37:02.909Z,99.90
2023-07-18T04:39:31.504Z,99.90
2023-07-18T04:41:59.348Z,99.90
2023-07-18T04:44:27.214Z,99.90
2023-07-18T04:46:55.331Z,99.90
2023-07-18T04:49:26.064Z,99.90
2023-07-18T04:51:54.199Z,99.90
2023-07-18T04:54:22.640Z,99.90
2023-07-18T04:56:54.343Z,99.90
2023-07-18T04:59:22.798Z,99.90
2023-07-18T05:01:53.964Z,99.90
2023-07-18T05:04:22.170Z,99.90
2023-07-18T05:06:51.468Z,99.90
2023-07-18T05:09:19.368Z,99.90
2023-07-18T05:11:48.115Z,99.90
2023-07-18T05:14:15.967Z,99.90
2023-07-18T05:16:43.895Z,99.90
2023-07-18T05:19:11.768Z,99.90
2023-07-18T05:21:39.768Z,99.90
2023-07-18T05:24:09.340Z,99.90
2023-07-18T05:26:37.183Z,99.90
2023-07-18T05:29:05.128Z,99.90
2023-07-18T05:31:33.031Z,99.90
2023-07-18T05:34:00.978Z,99.90
2023-07-18T05:36:28.833Z,99.90
2023-07-18T05:38:56.755Z,99.90
2023-07-18T05:41:25.960Z,99.90
2023-07-18T05:43:53.849Z,99.90
2023-07-18T05:46:21.797Z,99.90
2023-07-18T05:48:50.043Z,99.90
2023-07-18T05:51:20.247Z,99.90
2023-07-18T05:53:48.418Z,99.90
2023-07-18T05:56:16.295Z,99.90
2023-07-18T05:58:45.498Z,99.90
2023-07-18T06:01:15.207Z,99.90
2023-07-18T06:03:43.898Z,99.90
2023-07-18T06:06:12.409Z,99.90
2023-07-18T06:08:40.357Z,99.90
2023-07-18T06:11:08.216Z,99.90
2023-07-18T06:13:36.058Z,99.90
2023-07-18T06:16:05.812Z,99.90
2023-07-18T06:18:33.722Z,99.90
2023-07-18T06:21:01.904Z,99.90
2023-07-18T06:23:30.360Z,99.90
2023-07-18T06:26:26.681Z,99.90
2023-07-18T06:28:55.104Z,99.90
2023-07-18T06:31:24.932Z,99.90
2023-07-18T06:33:52.862Z,99.90
2023-07-18T06:36:22.046Z,99.90
2023-07-18T06:38:50.008Z,99.90
2023-07-18T06:41:18.384Z,99.90
2023-07-18T06:43:46.521Z,99.90
2023-07-18T06:46:15.203Z,99.90
2023-07-18T06:48:44.587Z,99.90
2023-07-18T06:51:12.449Z,99.90
2023-07-18T06:53:40.333Z,99.90
2023-07-18T06:56:08.278Z,99.90
2023-07-18T06:58:36.123Z,99.90
2023-07-18T07:01:04.025Z,99.90
2023-07-18T07:03:32.062Z,99.90
2023-07-18T07:06:01.442Z,99.90
2023-07-18T07:08:30.613Z,99.90
2023-07-18T07:11:04.915Z,99.90
2023-07-18T07:13:32.853Z,99.90
2023-07-18T07:16:01.622Z,99.90
2023-07-18T07:18:29.503Z,99.90
2023-07-18T07:20:57.432Z,99.90
2023-07-18T07:23:26.740Z,99.90
2023-07-18T07:25:54.599Z,99.90
2023-07-18T07:28:24.132Z,99.90
2023-07-18T07:30:52.142Z,99.90
2023-07-18T07:33:20.128Z,99.90
2023-07-18T07:35:48.091Z,99.90
2023-07-18T07:38:16.507Z,99.90
2023-07-18T07:40:45.701Z,99.90
2023-07-18T07:43:13.533Z,99.90
2023-07-18T07:45:41.413Z,99.90
2023-07-18T07:48:09.300Z,99.90
2023-07-18T07:50:37.184Z,99.90
2023-07-18T07:53:05.750Z,99.90
2023-07-18T07:55:33.631Z,99.90
2023-07-18T07:58:02.803Z,99.90
2023-07-18T08:00:30.675Z,99.90
2023-07-18T08:02:58.550Z,99.90
2023-07-18T08:05:26.619Z,99.90
2023-07-18T08:07:54.490Z,99.90
2023-07-18T08:10:22.474Z,99.90
2023-07-18T08:12:50.342Z,99.90
2023-07-18T08:15:20.696Z,99.90
2023-07-18T08:17:48.605Z,99.90
2023-07-18T08:20:16.873Z,99.90
2023-07-18T08:22:44.777Z,99.90
2023-07-18T08:25:13.933Z,99.90
2023-07-18T08:27:41.779Z,99.90
2023-07-18T08:30:10.780Z,99.90
2023-07-18T08:32:41.663Z,99.90
2023-07-18T08:35:10.532Z,99.90
2023-07-18T08:37:40.390Z,99.90
2023-07-18T08:40:10.831Z,99.90
2023-07-18T08:42:38.674Z,99.90
2023-07-18T08:45:08.441Z,99.90
2023-07-18T08:47:36.307Z,99.90
2023-07-18T08:50:06.940Z,99.90
2023-07-18T08:52:34.938Z,99.90
2023-07-18T08:55:03.022Z,99.90
2023-07-18T08:57:32.052Z,99.90
2023-07-18T09:00:00.984Z,99.90
2023-07-18T09:02:30.458Z,99.90
2023-07-18T09:04:58.387Z,99.90
2023-07-18T09:07:28.594Z,99.90
2023-07-18T09:09:58.944Z,99.90
2023-07-18T09:12:26.823Z,99.90
2023-07-18T09:14:57.865Z,99.90
2023-07-18T09:17:25.954Z,99.90
2023-07-18T09:19:54.061Z,99.90
2023-07-18T09:22:22.225Z,99.90
2023-07-18T09:24:51.425Z,99.90
2023-07-18T09:27:20.522Z,99.90
2023-07-18T09:29:49.706Z,99.90
2023-07-18T09:32:18.876Z,99.90
2023-07-18T09:34:53.013Z,99.90
2023-07-18T09:37:20.924Z,99.90
2023-07-18T09:39:48.882Z,99.90
2023-07-18T09:42:20.363Z,99.90
2023-07-18T09:44:51.320Z,99.90
2023-07-18T09:47:20.249Z,99.90
2023-07-18T09:49:48.264Z,99.90
2023-07-18T09:52:17.088Z,99.90
2023-07-18T09:54:45.568Z,99.90
2023-07-18T09:57:14.809Z,99.90
2023-07-18T09:59:43.992Z,99.90
2023-07-18T10:02:12.547Z,99.90
2023-07-18T10:04:40.544Z,99.90
2023-07-18T10:07:10.270Z,99.90
2023-07-18T10:09:38.420Z,99.90
2023-07-18T10:12:10.793Z,99.90
2023-07-18T10:15:01.336Z,99.90
2023-07-18T10:17:30.604Z,99.90
2023-07-18T10:19:58.550Z,99.90
2023-07-18T10:22:27.286Z,99.90
2023-07-18T10:24:55.153Z,99.90
2023-07-18T10:27:25.600Z,99.90
2023-07-18T10:30:05.281Z,99.90
2023-07-18T10:32:33.619Z,99.90
2023-07-18T10:35:01.895Z,96.40
2023-07-18T10:37:31.849Z,99.90
2023-07-18T10:40:00.709Z,97.00
2023-07-18T10:42:31.814Z,99.90
2023-07-18T10:45:00.190Z,99.90
2023-07-18T10:47:29.760Z,99.90
2023-07-18T10:49:57.999Z,99.90
2023-07-18T10:52:25.952Z,99.90
2023-07-18T10:54:55.604Z,99.90
2023-07-18T10:57:27.410Z,99.90
2023-07-18T10:59:55.331Z,99.90
2023-07-18T11:02:23.303Z,99.90
2023-07-18T11:04:54.627Z,99.90
2023-07-18T11:07:33.498Z,99.90
2023-07-18T11:10:01.605Z,99.90
2023-07-18T11:12:29.460Z,99.90
2023-07-18T11:15:00.439Z,99.90
2023-07-18T11:17:28.942Z,99.90
2023-07-18T11:19:59.605Z,99.90
2023-07-18T11:22:27.540Z,99.90
2023-07-18T11:24:56.733Z,95.50
2023-07-18T11:27:25.147Z,99.90
2023-07-18T11:29:57.537Z,99.90
2023-07-18T11:32:33.911Z,99.90
2023-07-18T11:35:03.738Z,99.90
2023-07-18T11:37:33.922Z,99.90
2023-07-18T11:40:04.373Z,99.90
2023-07-18T11:42:48.805Z,99.90
2023-07-18T11:45:21.483Z,99.90
2023-07-18T11:47:49.383Z,99.90
2023-07-18T11:50:18.905Z,99.90
2023-07-18T11:52:48.129Z,99.90
2023-07-18T11:55:16.142Z,99.90
2023-07-18T11:57:44.709Z,99.90
2023-07-18T12:00:13.685Z,99.90
2023-07-18T12:02:42.294Z,99.90
2023-07-18T12:05:10.461Z,99.90
2023-07-18T12:07:39.686Z,99.90
2023-07-18T12:10:08.905Z,99.90
2023-07-18T12:12:36.816Z,99.90
2023-07-18T12:15:06.244Z,99.90
2023-07-18T12:17:34.221Z,99.90
2023-07-18T12:20:02.152Z,99.90
2023-07-18T12:22:30.066Z,99.90
2023-07-18T12:24:59.297Z,99.90
2023-07-18T12:27:27.208Z,99.90
2023-07-18T12:29:55.071Z,99.90
2023-07-18T12:32:26.652Z,99.90
2023-07-18T12:34:57.117Z,99.90
2023-07-18T12:37:25.317Z,99.90
2023-07-18T12:39:53.295Z,99.90
2023-07-18T12:42:22.583Z,99.90
2023-07-18T12:44:51.268Z,99.90
2023-07-18T12:47:19.208Z,99.90
2023-07-18T12:52:17.850Z,99.90
2023-07-18T12:54:45.745Z,99.90
2023-07-18T12:57:13.642Z,99.90
2023-07-18T12:59:42.863Z,99.90
2023-07-18T13:02:11.411Z,99.90
2023-07-18T13:04:39.400Z,99.90
2023-07-18T13:07:08.206Z,99.90
2023-07-18T13:09:37.689Z,99.90
2023-07-18T13:12:06.084Z,99.90
2023-07-18T13:14:34.175Z,99.90
2023-07-18T13:17:03.828Z,99.90
2023-07-18T13:19:31.728Z,99.90
2023-07-18T13:21:59.602Z,99.90
2023-07-18T13:24:27.533Z,99.90
2023-07-18T13:26:55.649Z,99.90
2023-07-18T13:29:23.530Z,99.90
2023-07-18T13:31:51.469Z,99.90
2023-07-18T13:34:22.951Z,99.90
2023-07-18T13:36:50.883Z,99.90
2023-07-18T13:39:18.801Z,99.90
2023-07-18T13:41:47.490Z,99.90
2023-07-18T13:44:15.515Z,99.90
2023-07-18T13:46:43.438Z,99.90
2023-07-18T13:49:11.371Z,99.90
2023-07-18T13:51:40.683Z,99.90
2023-07-18T13:54:08.959Z,99.90
2023-07-18T13:56:36.972Z,99.90
2023-07-18T13:59:04.848Z,99.90
2023-07-18T14:01:32.899Z,99.90
2023-07-18T14:04:00.995Z,99.90
2023-07-18T14:06:28.959Z,99.90
2023-07-18T14:08:58.329Z,99.90
2023-07-18T14:11:28.312Z,99.90
2023-07-18T14:13:57.840Z,99.90
2023-07-18T14:16:25.800Z,99.90
2023-07-18T14:18:57.337Z,99.90
2023-07-18T14:21:25.568Z,99.90
2023-07-18T14:23:53.605Z,99.90
2023-07-18T14:26:23.182Z,99.90
2023-07-18T14:28:51.189Z,99.90
2023-07-18T14:31:19.195Z,99.90
2023-07-18T14:33:59.964Z,99.90
2023-07-18T14:36:33.014Z,99.90
2023-07-18T14:39:00.892Z,99.90
2023-07-18T14:41:30.153Z,99.90
2023-07-18T14:43:58.040Z,99.90
2023-07-18T14:46:26.005Z,99.90
2023-07-18T14:48:54.004Z,99.90
2023-07-18T14:51:22.579Z,99.90
2023-07-18T14:53:50.490Z,99.90
2023-07-18T14:56:18.611Z,99.90
2023-07-18T14:58:48.125Z,99.90
2023-07-18T15:01:16.056Z,99.90
2023-07-18T15:03:44.522Z,99.90
2023-07-18T15:06:12.439Z,99.90
2023-07-18T15:08:41.052Z,99.90
2023-07-18T15:11:10.389Z,99.90
2023-07-18T15:13:38.446Z,99.90
2023-07-18T15:16:07.913Z,99.90
2023-07-18T15:18:35.854Z,99.90
2023-07-18T15:21:04.424Z,99.90
2023-07-18T15:23:34.314Z,99.90
2023-07-18T15:26:02.217Z,99.90
2023-07-18T15:28:30.072Z,99.90
2023-07-18T15:30:57.962Z,99.90
2023-07-18T15:33:27.989Z,99.90
2023-07-18T15:35:56.297Z,99.90
2023-07-18T15:38:24.168Z,99.90
2023-07-18T15:40:52.045Z,99.90
2023-07-18T15:43:20.063Z,99.90
2023-07-18T15:45:48.332Z,99.90
2023-07-18T15:48:16.313Z,99.90
2023-07-18T15:50:45.554Z,99.90
2023-07-18T15:53:13.534Z,99.90
2023-07-18T15:55:41.762Z,99.90
2023-07-18T15:58:09.661Z,99.90
2023-07-18T16:00:37.558Z,99.90
2023-07-18T16:03:05.709Z,99.90
2023-07-18T16:05:33.712Z,99.90
2023-07-18T16:08:02.938Z,99.90
2023-07-18T16:10:30.830Z,95.50
2023-07-18T16:12:58.669Z,99.90
2023-07-18T16:15:26.654Z,99.90
2023-07-18T16:17:54.584Z,92.40
2023-07-18T16:20:22.620Z,99.90
2023-07-18T16:22:51.898Z,99.90
2023-07-18T16:25:21.458Z,90.10
2023-07-18T16:27:50.232Z,97.90
2023-07-18T16:30:19.112Z,99.90
2023-07-18T16:32:47.244Z,99.90
2023-07-18T16:35:15.370Z,99.90
2023-07-18T16:37:43.380Z,99.90
2023-07-18T16:40:12.587Z,99.90
2023-07-18T16:42:41.976Z,97.10
2023-07-18T16:45:10.781Z,99.90
2023-07-18T16:47:38.708Z,94.20
2023-07-18T16:50:07.913Z,96.40
2023-07-18T16:52:35.828Z,80.40
2023-07-18T16:55:03.731Z,90.30
2023-07-18T16:57:31.668Z,76.20
2023-07-18T17:00:01.594Z,74.90
2023-07-18T17:02:29.617Z,50.80
2023-07-18T17:05:00.613Z,62.40
2023-07-18T17:07:28.521Z,51.80
2023-07-18T17:09:56.504Z,74.70
2023-07-18T17:12:24.500Z,74.10
2023-07-18T17:14:52.408Z,99.90
2023-07-18T17:17:21.746Z,93.20
2023-07-18T17:20:05.105Z,99.40
2023-07-18T17:22:35.608Z,98.00
2023-07-18T17:25:04.589Z,94.10
2023-07-18T17:27:32.511Z,99.90
2023-07-18T17:30:01.733Z,93.60
2023-07-18T17:32:31.065Z,99.90
2023-07-18T17:34:59.042Z,99.90
2023-07-18T17:37:27.002Z,99.90
2023-07-18T17:42:24.076Z,99.90
2023-07-18T17:44:53.052Z,99.90
2023-07-18T17:47:21.101Z,99.90
2023-07-18T17:49:50.407Z,99.90
2023-07-18T17:52:18.564Z,99.90
2023-07-18T17:54:46.526Z,99.90
2023-07-18T17:57:14.831Z,99.90
2023-07-18T17:59:43.292Z,99.90
2023-07-18T18:02:11.476Z,99.90
2023-07-18T18:04:39.383Z,99.90
2023-07-18T18:07:09.128Z,99.90
2023-07-18T18:09:37.978Z,99.90
2023-07-18T18:12:06.380Z,99.90
2023-07-18T18:14:34.305Z,99.90
2023-07-18T18:17:02.340Z,99.90
2023-07-18T18:19:30.270Z,99.90
2023-07-18T18:21:58.207Z,99.90
2023-07-18T18:24:27.477Z,99.90
2023-07-18T18:26:55.437Z,99.90
2023-07-18T18:29:26.687Z,99.90
2023-07-18T18:31:54.664Z,99.90
2023-07-18T18:34:22.529Z,99.90
2023-07-18T18:36:50.817Z,99.90
2023-07-18T18:39:21.076Z,99.90
2023-07-18T18:41:50.387Z,99.90
2023-07-18T18:44:18.370Z,99.90
2023-07-18T18:46:46.630Z,99.90
2023-07-18T18:49:25.889Z,99.90
2023-07-18T18:51:54.822Z,99.90
2023-07-18T18:54:22.942Z,99.90
2023-07-18T18:56:53.931Z,99.90
2023-07-18T18:59:22.307Z,99.90
2023-07-18T19:01:51.258Z,99.90
2023-07-18T19:04:19.341Z,99.90
2023-07-18T19:06:47.233Z,99.90
2023-07-18T19:09:15.133Z,99.90
2023-07-18T19:11:43.032Z,99.90
2023-07-18T19:14:12.261Z,99.90
2023-07-18T19:16:41.149Z,99.90
2023-07-18T19:19:09.308Z,99.90
2023-07-18T19:21:37.162Z,99.90
2023-07-18T19:24:05.490Z,99.90
2023-07-18T19:26:33.350Z,99.90
2023-07-18T19:29:01.235Z,99.90
2023-07-18T19:31:30.469Z,99.90
2023-07-18T19:33:58.359Z,99.90
2023-07-18T19:36:26.250Z,99.90
2023-07-18T19:38:54.449Z,99.90
2023-07-18T19:41:24.187Z,99.90
2023-07-18T19:43:52.258Z,99.90
2023-07-18T19:46:20.353Z,99.90
2023-07-18T19:48:49.718Z,99.90
2023-07-18T19:51:17.894Z,99.90
2023-07-18T19:53:46.071Z,99.90
2023-07-18T19:56:14.360Z,99.90
2023-07-18T19:58:43.115Z,99.90
2023-07-18T20:01:11.026Z,99.90
2023-07-18T20:03:56.500Z,99.90
2023-07-18T20:06:27.921Z,99.90
2023-07-18T20:08:56.084Z,99.90
2023-07-18T20:11:24.273Z,99.90
2023-07-18T20:13:52.463Z,99.90
2023-07-18T20:16:20.542Z,99.90
2023-07-18T20:18:51.705Z,99.90
2023-07-18T20:21:22.056Z,99.90
2023-07-18T20:23:51.496Z,99.90
2023-07-18T20:26:19.369Z,99.90
2023-07-18T20:28:47.237Z,99.90
2023-07-18T20:31:15.221Z,99.90
2023-07-18T20:33:43.571Z,99.90
2023-07-18T20:36:11.631Z,99.90
2023-07-18T20:38:39.536Z,99.90
2023-07-18T20:41:10.253Z,99.90
2023-07-18T20:43:38.430Z,99.90
2023-07-18T20:46:08.681Z,99.90
2023-07-18T20:48:37.810Z,99.90
2023-07-18T20:51:06.897Z,99.90
2023-07-18T20:53:34.786Z,99.90
2023-07-18T20:56:02.648Z,99.90
2023-07-18T20:58:32.261Z,99.90
2023-07-18T21:01:00.197Z,99.90
2023-07-18T21:03:29.026Z,99.90
2023-07-18T21:05:57.165Z,99.90
2023-07-18T21:08:25.041Z,99.90
2023-07-18T21:10:52.900Z,99.90
2023-07-18T21:13:20.744Z,99.90
2023-07-18T21:15:49.983Z,99.90
2023-07-18T21:18:17.909Z,99.90
2023-07-18T21:20:45.853Z,99.90
2023-07-18T21:23:13.762Z,99.90
2023-07-18T21:25:41.646Z,99.90
2023-07-18T21:28:09.893Z,99.90
2023-07-18T21:30:37.734Z,99.90
2023-07-18T21:33:07.024Z,99.90
2023-07-18T21:35:34.907Z,99.90
2023-07-18T21:38:02.760Z,99.90
2023-07-18T21:40:30.616Z,99.90
2023-07-18T21:42:58.475Z,99.90
2023-07-18T21:45:26.529Z,99.90
2023-07-18T21:47:54.477Z,99.90
2023-07-18T21:50:23.975Z,99.90
2023-07-18T21:52:51.839Z,99.90
2023-07-18T21:55:19.702Z,99.90
2023-07-18T21:57:47.561Z,99.90
2023-07-18T22:00:15.826Z,99.90
2023-07-18T22:02:43.871Z,99.90
2023-07-18T22:05:11.814Z,99.90
2023-07-18T22:07:41.018Z,99.90
2023-07-18T22:10:09.953Z,99.90
2023-07-18T22:12:37.840Z,99.90
2023-07-18T22:15:06.713Z,99.90
2023-07-18T22:17:34.590Z,99.90
2023-07-18T22:20:02.816Z,99.90
2023-07-18T22:22:30.674Z,99.90
2023-07-18T22:24:59.987Z,99.90
2023-07-18T22:27:27.841Z,99.90
2023-07-18T22:29:55.784Z,99.90
2023-07-18T22:32:23.624Z,99.90
2023-07-18T22:34:51.506Z,99.90
2023-07-18T22:37:19.668Z,99.90
2023-07-18T22:39:49.363Z,99.90
2023-07-18T22:42:19.456Z,99.90
2023-07-18T22:44:47.810Z,99.90
2023-07-18T22:47:15.868Z,99.90
2023-07-18T22:49:43.877Z,99.90
2023-07-18T22:52:13.431Z,99.90
2023-07-18T22:54:41.327Z,99.90
2023-07-18T22:57:09.217Z,99.90
2023-07-18T22:59:38.473Z,99.90
2023-07-18T23:02:06.603Z,99.90
2023-07-18T23:04:34.456Z,99.90
2023-07-18T23:07:02.773Z,99.90
2023-07-18T23:09:32.304Z,99.90
2023-07-18T23:12:00.205Z,99.90
2023-07-18T23:14:28.628Z,99.90
2023-07-18T23:16:58.092Z,99.90
2023-07-18T23:19:26.046Z,99.90
2023-07-18T23:21:53.922Z,99.90
2023-07-18T23:24:21.794Z,99.90
2023-07-18T23:26:49.639Z,99.90
2023-07-18T23:29:17.470Z,99.90
2023-07-18T23:31:45.308Z,99.90
2023-07-18T23:34:14.500Z,99.90
2023-07-18T23:36:42.350Z,99.90
2023-07-18T23:39:10.199Z,99.90
2023-07-18T23:41:38.034Z,99.90
2023-07-18T23:44:05.893Z,99.90
2023-07-18T23:46:34.374Z,99.90
2023-07-18T23:49:02.295Z,99.90
2023-07-18T23:51:31.534Z,99.90
2023-07-18T23:53:59.882Z,99.90
2023-07-18T23:56:27.738Z,99.90
2023-07-18T23:58:55.616Z,99.90
